createdAt,value
2019-03-09T00:01:21.768Z,10.50
2019-03-09T00:03:51.129Z,10.50
2019-03-09T00:06:20.787Z,10.60
2019-03-09T00:08:50.147Z,10.60
2019-03-09T00:11:19.530Z,10.60
2019-03-09T00:13:48.911Z,10.60
2019-03-09T00:16:18.290Z,10.60
2019-03-09T00:18:48.037Z,10.60
2019-03-09T00:21:17.729Z,10.60
2019-03-09T00:23:54.589Z,10.60
2019-03-09T00:26:34.352Z,10.60
2019-03-09T00:29:14.346Z,10.60
2019-03-09T00:31:54.501Z,10.50
2019-03-09T00:34:23.873Z,10.40
2019-03-09T00:36:53.262Z,10.40
2019-03-09T00:39:23.280Z,10.40
2019-03-09T00:41:52.952Z,10.30
2019-03-09T00:44:22.297Z,10.30
2019-03-09T00:46:51.684Z,10.30
2019-03-09T00:49:21.075Z,10.20
2019-03-09T00:51:50.477Z,10.10
2019-03-09T00:54:19.865Z,10.00
2019-03-09T00:56:49.590Z,10.00
2019-03-09T00:59:19.287Z,9.90
2019-03-09T01:01:48.665Z,9.90
2019-03-09T01:04:18.046Z,9.80
2019-03-09T01:06:47.519Z,9.80
2019-03-09T01:09:16.928Z,9.70
2019-03-09T01:11:46.642Z,9.70
2019-03-09T01:14:16.036Z,9.60
2019-03-09T01:16:45.410Z,9.60
2019-03-09T01:19:14.818Z,9.60
2019-03-09T01:21:44.466Z,9.60
2019-03-09T01:24:13.827Z,9.50
2019-03-09T01:26:43.204Z,9.50
2019-03-09T01:29:12.584Z,9.50
2019-03-09T01:31:41.962Z,9.50
2019-03-09T01:34:11.326Z,9.50
2019-03-09T01:36:40.712Z,9.40
2019-03-09T01:39:10.149Z,9.40
2019-03-09T01:41:39.523Z,9.40
2019-03-09T01:44:08.919Z,9.40
2019-03-09T01:46:38.361Z,9.40
2019-03-09T01:49:07.752Z,9.40
2019-03-09T01:51:37.133Z,9.40
2019-03-09T01:54:06.511Z,9.40
2019-03-09T01:56:36.016Z,9.40
2019-03-09T01:59:05.414Z,9.40
2019-03-09T02:01:34.792Z,9.40
2019-03-09T02:04:04.363Z,9.40
2019-03-09T02:06:33.731Z,9.40
2019-03-09T02:09:04.051Z,9.30
2019-03-09T02:11:33.428Z,9.30
2019-03-09T02:14:02.959Z,9.30
2019-03-09T02:16:33.241Z,9.30
2019-03-09T02:19:02.682Z,9.40
2019-03-09T02:21:32.137Z,9.40
2019-03-09T02:24:01.517Z,9.40
2019-03-09T02:26:30.900Z,9.40
2019-03-09T02:29:01.194Z,9.40
2019-03-09T02:31:30.690Z,9.50
2019-03-09T02:34:00.106Z,9.50
2019-03-09T02:36:30.329Z,9.50
2019-03-09T02:39:01.343Z,9.50
2019-03-09T02:41:30.711Z,9.50
2019-03-09T02:44:00.091Z,9.60
2019-03-09T02:46:29.698Z,9.50
2019-03-09T02:48:59.099Z,9.60
2019-03-09T02:51:28.472Z,9.60
2019-03-09T02:53:57.872Z,9.60
2019-03-09T02:56:27.558Z,9.60
2019-03-09T02:58:56.936Z,9.60
2019-03-09T03:01:44.108Z,9.60
2019-03-09T03:04:13.751Z,9.60
2019-03-09T03:06:43.123Z,9.70
2019-03-09T03:09:12.589Z,9.70
2019-03-09T03:11:41.960Z,9.70
2019-03-09T03:14:11.349Z,9.70
2019-03-09T03:16:41.011Z,9.70
2019-03-09T03:19:10.395Z,9.70
2019-03-09T03:21:39.840Z,9.70
2019-03-09T03:24:09.237Z,9.70
2019-03-09T03:26:38.598Z,9.80
2019-03-09T03:29:07.985Z,9.80
2019-03-09T03:31:37.367Z,9.80
2019-03-09T03:34:06.780Z,9.80
2019-03-09T03:36:36.213Z,9.80
2019-03-09T03:39:07.928Z,9.80
2019-03-09T03:41:37.286Z,9.80
2019-03-09T03:44:06.667Z,9.80
2019-03-09T03:46:36.041Z,9.80
2019-03-09T03:49:05.482Z,9.80
2019-03-09T03:51:34.865Z,9.80
2019-03-09T03:54:04.313Z,9.80
2019-03-09T03:56:33.686Z,9.90
2019-03-09T03:59:03.196Z,9.80
2019-03-09T04:01:32.646Z,9.90
2019-03-09T04:04:02.117Z,9.90
2019-03-09T04:06:32.002Z,9.90
2019-03-09T04:09:01.969Z,9.90
2019-03-09T04:11:31.691Z,10.00
2019-03-09T04:14:01.551Z,10.00
2019-03-09T04:16:30.952Z,10.00
2019-03-09T04:19:00.340Z,10.00
2019-03-09T04:21:29.783Z,10.10
2019-03-09T04:23:59.171Z,10.10
2019-03-09T04:26:28.635Z,10.10
2019-03-09T04:28:58.014Z,10.10
2019-03-09T04:31:28.956Z,10.20
2019-03-09T04:33:58.339Z,10.20
2019-03-09T04:36:27.832Z,10.20
2019-03-09T04:38:57.227Z,10.20
2019-03-09T04:41:26.665Z,10.30
2019-03-09T04:43:56.032Z,10.30
2019-03-09T04:46:25.423Z,10.30
2019-03-09T04:48:54.811Z,10.40
2019-03-09T04:51:25.338Z,10.40
2019-03-09T04:53:54.717Z,10.40
2019-03-09T04:56:24.096Z,10.40
2019-03-09T04:58:53.475Z,10.40
2019-03-09T05:01:22.871Z,10.50
2019-03-09T05:04:22.259Z,10.50
2019-03-09T05:06:51.671Z,10.50
2019-03-09T05:10:04.710Z,10.50
2019-03-09T05:12:34.097Z,10.60
2019-03-09T05:15:04.345Z,10.60
2019-03-09T05:17:33.740Z,10.60
2019-03-09T05:20:06.263Z,10.60
2019-03-09T05:22:35.651Z,10.70
2019-03-09T05:25:05.747Z,10.70
2019-03-09T05:27:35.132Z,10.70
2019-03-09T05:30:07.879Z,10.80
2019-03-09T05:32:37.269Z,10.80
2019-03-09T05:35:07.511Z,10.80
2019-03-09T05:37:43.110Z,10.80
2019-03-09T05:40:09.813Z,10.80
2019-03-09T05:42:39.179Z,10.80
2019-03-09T05:45:09.290Z,10.80
2019-03-09T05:47:38.989Z,10.80
2019-03-09T05:50:09.107Z,10.90
2019-03-09T05:52:38.577Z,10.90
2019-03-09T05:55:12.072Z,10.90
2019-03-09T05:57:41.469Z,11.00
2019-03-09T06:00:14.556Z,11.00
2019-03-09T06:02:43.929Z,11.00
2019-03-09T06:05:34.865Z,11.00
2019-03-09T06:08:05.951Z,11.00
2019-03-09T06:10:35.412Z,11.00
2019-03-09T06:13:05.606Z,11.10
2019-03-09T06:15:34.988Z,11.10
2019-03-09T06:18:06.482Z,11.10
2019-03-09T06:20:35.978Z,11.10
2019-03-09T06:23:05.443Z,11.10
2019-03-09T06:25:34.821Z,11.10
2019-03-09T06:28:04.264Z,11.20
2019-03-09T06:30:33.886Z,11.20
2019-03-09T06:33:26.480Z,11.30
2019-03-09T06:36:15.905Z,11.30
2019-03-09T06:38:55.363Z,11.30
2019-03-09T06:41:44.715Z,11.40
2019-03-09T06:44:14.335Z,11.50
2019-03-09T06:46:43.715Z,11.50
2019-03-09T06:49:13.099Z,11.50
2019-03-09T06:51:42.497Z,11.50
2019-03-09T06:54:11.876Z,11.60
2019-03-09T06:56:41.505Z,11.60
2019-03-09T06:59:11.966Z,11.60
2019-03-09T07:01:41.368Z,11.60
2019-03-09T07:04:12.448Z,11.60
2019-03-09T07:06:42.269Z,11.60
2019-03-09T07:15:55.252Z,11.60
2019-03-09T07:18:24.717Z,11.60
2019-03-09T07:20:54.120Z,11.60
2019-03-09T07:23:23.495Z,11.60
2019-03-09T07:25:53.205Z,11.70
2019-03-09T07:28:25.997Z,11.70
2019-03-09T07:30:55.375Z,11.70
2019-03-09T07:33:24.787Z,11.70
2019-03-09T07:35:54.163Z,11.70
2019-03-09T07:38:23.944Z,11.70
2019-03-09T07:40:53.338Z,11.70
2019-03-09T07:43:22.727Z,11.70
2019-03-09T07:45:52.183Z,11.80
2019-03-09T07:48:21.562Z,11.80
2019-03-09T07:50:50.956Z,11.80
2019-03-09T07:53:20.392Z,11.80
2019-03-09T07:55:49.828Z,11.80
2019-03-09T07:58:19.203Z,11.80
2019-03-09T08:00:48.839Z,11.90
2019-03-09T08:03:18.461Z,11.90
2019-03-09T08:05:47.842Z,11.90
2019-03-09T08:08:17.224Z,11.90
2019-03-09T08:10:46.617Z,11.90
2019-03-09T08:13:16.262Z,11.90
2019-03-09T08:15:45.742Z,11.90
2019-03-09T08:18:15.115Z,12.00
2019-03-09T08:20:44.518Z,12.00
2019-03-09T08:23:13.907Z,12.00
2019-03-09T08:25:43.365Z,12.00
2019-03-09T08:28:13.171Z,12.00
2019-03-09T08:30:42.562Z,12.00
2019-03-09T08:33:11.953Z,12.10
2019-03-09T08:35:42.302Z,12.10
2019-03-09T08:38:31.791Z,12.10
2019-03-09T08:41:01.505Z,12.10
2019-03-09T08:43:30.903Z,12.10
2019-03-09T08:46:00.264Z,12.10
2019-03-09T08:48:29.672Z,12.10
2019-03-09T08:50:59.317Z,12.20
2019-03-09T08:53:28.939Z,12.20
2019-03-09T08:55:59.772Z,12.30
2019-03-09T08:58:29.182Z,12.30
2019-03-09T09:00:58.539Z,12.40
2019-03-09T09:03:27.885Z,12.40
2019-03-09T09:05:57.247Z,12.50
2019-03-09T09:08:26.626Z,12.40
2019-03-09T09:10:55.998Z,12.50
2019-03-09T09:13:25.396Z,12.50
2019-03-09T09:15:54.752Z,12.50
2019-03-09T09:18:24.131Z,12.90
2019-03-09T09:20:53.593Z,12.50
2019-03-09T09:23:22.952Z,12.50
2019-03-09T09:25:52.321Z,12.50
2019-03-09T09:28:21.694Z,12.50
2019-03-09T09:30:51.080Z,12.60
2019-03-09T09:33:20.494Z,12.50
2019-03-09T09:35:49.851Z,12.50
2019-03-09T09:38:19.227Z,12.60
2019-03-09T09:40:48.601Z,12.60
2019-03-09T09:43:17.974Z,12.60
2019-03-09T09:45:47.654Z,12.70
2019-03-09T09:48:17.056Z,12.70
2019-03-09T09:50:46.427Z,12.70
2019-03-09T09:53:16.027Z,12.70
2019-03-09T09:55:45.395Z,12.80
2019-03-09T09:58:15.016Z,12.80
2019-03-09T10:00:44.390Z,12.80
2019-03-09T10:03:13.767Z,12.90
2019-03-09T10:05:43.136Z,12.90
2019-03-09T10:08:12.516Z,12.90
2019-03-09T10:10:41.893Z,12.90
2019-03-09T10:13:11.363Z,13.00
2019-03-09T10:15:40.960Z,13.10
2019-03-09T10:18:10.355Z,13.10
2019-03-09T10:20:39.727Z,13.20
2019-03-09T10:23:09.103Z,13.20
2019-03-09T10:25:38.472Z,13.30
2019-03-09T10:28:08.113Z,13.30
2019-03-09T10:30:37.489Z,13.30
2019-03-09T10:33:06.851Z,13.30
2019-03-09T10:35:36.296Z,13.30
2019-03-09T10:38:05.903Z,13.30
2019-03-09T10:40:35.277Z,13.30
2019-03-09T10:43:04.921Z,13.30
2019-03-09T10:45:34.303Z,13.30
2019-03-09T10:48:03.818Z,13.30
2019-03-09T10:50:33.218Z,13.30
2019-03-09T10:53:02.593Z,13.30
2019-03-09T10:55:35.892Z,13.40
2019-03-09T10:58:05.744Z,13.40
2019-03-09T11:00:44.080Z,13.30
2019-03-09T11:03:13.438Z,13.40
2019-03-09T11:05:42.826Z,13.40
2019-03-09T11:08:12.192Z,13.40
2019-03-09T11:10:41.809Z,13.40
2019-03-09T11:13:11.182Z,13.50
2019-03-09T11:15:40.587Z,13.50
2019-03-09T11:18:10.017Z,13.50
2019-03-09T11:20:39.703Z,13.60
2019-03-09T11:23:09.070Z,13.60
2019-03-09T11:25:38.443Z,13.60
2019-03-09T11:28:11.461Z,13.60
2019-03-09T11:30:40.918Z,13.70
2019-03-09T11:33:10.376Z,13.70
2019-03-09T11:35:39.748Z,13.80
2019-03-09T11:38:09.106Z,13.80
2019-03-09T11:40:38.812Z,13.90
2019-03-09T11:43:08.175Z,13.90
2019-03-09T11:45:37.550Z,14.00
2019-03-09T11:48:06.907Z,14.00
2019-03-09T11:50:36.627Z,14.10
2019-03-09T11:53:05.996Z,14.10
2019-03-09T11:55:35.597Z,14.20
2019-03-09T11:58:05.591Z,14.20
2019-03-09T12:00:42.299Z,14.30
2019-03-09T12:03:11.940Z,14.30
2019-03-09T12:05:41.315Z,14.30
2019-03-09T12:08:12.032Z,14.30
2019-03-09T12:10:41.875Z,14.30
2019-03-09T12:13:11.446Z,14.40
2019-03-09T12:15:41.170Z,14.40
2019-03-09T12:18:12.621Z,14.40
2019-03-09T12:20:45.644Z,14.40
2019-03-09T12:23:22.581Z,14.40
2019-03-09T12:25:54.107Z,14.40
2019-03-09T12:28:26.010Z,14.40
2019-03-09T12:30:55.631Z,14.30
2019-03-09T12:33:25.434Z,14.30
2019-03-09T12:35:56.851Z,14.30
2019-03-09T12:38:30.149Z,14.20
2019-03-09T12:41:06.401Z,14.30
2019-03-09T12:43:41.374Z,14.30
2019-03-09T12:46:13.153Z,14.40
2019-03-09T12:48:45.736Z,14.40
2019-03-09T12:51:15.788Z,14.70
2019-03-09T12:53:45.997Z,14.50
2019-03-09T12:56:15.782Z,14.60
2019-03-09T12:58:46.236Z,14.70
2019-03-09T13:01:15.915Z,14.80
2019-03-09T13:03:46.249Z,14.90
2019-03-09T13:06:19.333Z,15.00
2019-03-09T13:08:48.820Z,15.10
2019-03-09T13:11:19.039Z,15.10
2019-03-09T13:13:48.703Z,15.10
2019-03-09T13:16:23.431Z,15.00
2019-03-09T13:18:58.484Z,15.00
2019-03-09T13:21:30.068Z,14.90
2019-03-09T13:24:03.734Z,14.80
2019-03-09T13:26:37.266Z,14.70
2019-03-09T13:29:07.835Z,14.50
2019-03-09T13:31:39.702Z,14.40
2019-03-09T13:34:09.356Z,14.30
2019-03-09T13:36:40.912Z,14.10
2019-03-09T13:39:11.027Z,14.00
2019-03-09T13:41:42.160Z,13.80
2019-03-09T13:44:12.056Z,13.70
2019-03-09T13:46:42.567Z,13.60
2019-03-09T13:49:13.757Z,13.50
2019-03-09T13:51:48.485Z,13.40
2019-03-09T13:54:19.329Z,13.30
2019-03-09T13:56:50.371Z,13.20
2019-03-09T13:59:20.048Z,13.10
2019-03-09T14:01:51.310Z,13.00
2019-03-09T14:04:27.205Z,12.90
2019-03-09T14:06:56.687Z,12.90
2019-03-09T14:09:32.912Z,12.80
2019-03-09T14:12:07.907Z,12.80
2019-03-09T14:14:42.908Z,12.80
2019-03-09T14:17:12.020Z,12.80
2019-03-09T14:19:42.988Z,12.80
2019-03-09T14:22:13.617Z,12.90
2019-03-09T14:24:45.068Z,12.90
2019-03-09T14:27:16.913Z,12.90
2019-03-09T14:29:47.422Z,13.00
2019-03-09T14:32:18.428Z,13.00
2019-03-09T14:34:50.877Z,13.00
2019-03-09T14:37:22.610Z,13.00
2019-03-09T14:39:56.407Z,13.00
2019-03-09T14:42:25.952Z,13.00
2019-03-09T14:44:57.077Z,13.10
2019-03-09T14:47:26.553Z,13.10
2019-03-09T14:49:57.497Z,13.10
2019-03-09T14:52:27.138Z,13.20
2019-03-09T14:54:59.852Z,13.20
2019-03-09T14:57:33.959Z,13.30
2019-03-09T15:00:22.350Z,13.30
2019-03-09T15:02:52.922Z,13.40
2019-03-09T15:05:26.106Z,13.50
2019-03-09T15:07:56.531Z,13.40
2019-03-09T15:10:27.384Z,13.40
2019-03-09T15:12:57.904Z,13.50
2019-03-09T15:15:27.474Z,13.50
2019-03-09T15:17:56.915Z,13.50
2019-03-09T15:20:28.397Z,13.50
2019-03-09T15:23:00.751Z,13.60
2019-03-09T15:25:31.780Z,13.60
2019-03-09T15:28:01.342Z,13.60
2019-03-09T15:30:30.899Z,13.60
2019-03-09T15:33:00.594Z,13.70
2019-03-09T15:35:30.024Z,13.70
2019-03-09T15:37:59.532Z,13.70
2019-03-09T15:40:29.202Z,13.80
2019-03-09T15:43:00.420Z,13.80
2019-03-09T15:45:29.978Z,13.80
2019-03-09T15:47:59.421Z,13.80
2019-03-09T15:50:30.967Z,13.80
2019-03-09T15:53:03.999Z,13.90
2019-03-09T15:55:33.583Z,13.90
2019-03-09T15:58:03.804Z,13.90
2019-03-09T16:00:33.983Z,13.80
2019-03-09T16:03:03.563Z,13.80
2019-03-09T16:05:35.064Z,13.80
2019-03-09T16:08:04.916Z,13.70
2019-03-09T16:10:35.531Z,13.70
2019-03-09T16:13:05.073Z,13.60
2019-03-09T16:15:34.523Z,13.50
2019-03-09T16:18:04.394Z,13.50
2019-03-09T16:20:34.163Z,13.40
2019-03-09T16:23:06.698Z,13.30
2019-03-09T16:25:39.454Z,13.30
2019-03-09T16:28:08.988Z,13.10
2019-03-09T16:30:39.044Z,13.00
2019-03-09T16:33:10.134Z,12.80
2019-03-09T16:35:39.608Z,12.60
2019-03-09T16:38:09.799Z,12.30
2019-03-09T16:40:43.623Z,12.10
2019-03-09T16:43:15.047Z,11.90
2019-03-09T16:45:44.850Z,11.70
2019-03-09T16:48:16.132Z,11.50
2019-03-09T16:50:45.754Z,11.40
2019-03-09T16:53:15.236Z,11.30
2019-03-09T16:55:44.689Z,11.20
2019-03-09T16:58:14.092Z,11.20
2019-03-09T17:00:43.480Z,11.10
2019-03-09T17:03:13.587Z,11.00
2019-03-09T17:05:43.080Z,11.00
2019-03-09T17:08:13.640Z,10.90
2019-03-09T17:10:46.548Z,10.80
2019-03-09T17:13:17.616Z,10.80
2019-03-09T17:15:49.128Z,10.80
2019-03-09T17:18:18.387Z,10.80
2019-03-09T17:20:48.626Z,10.80
2019-03-09T17:23:18.322Z,10.80
2019-03-09T17:25:49.675Z,10.80
2019-03-09T17:28:21.090Z,10.80
2019-03-09T17:30:52.358Z,10.80
2019-03-09T17:33:21.858Z,10.80
2019-03-09T17:35:52.791Z,10.80
2019-03-09T17:38:23.662Z,10.80
2019-03-09T17:40:54.986Z,10.80
2019-03-09T17:43:24.382Z,10.80
2019-03-09T17:45:55.298Z,10.80
2019-03-09T17:48:24.862Z,10.80
2019-03-09T17:50:55.808Z,10.80
2019-03-09T17:53:26.936Z,10.90
2019-03-09T17:55:56.810Z,10.90
2019-03-09T17:58:26.413Z,10.90
2019-03-09T18:00:56.210Z,10.90
2019-03-09T18:03:27.186Z,10.90
2019-03-09T18:05:57.963Z,10.90
2019-03-09T18:08:27.522Z,10.90
2019-03-09T18:11:11.714Z,10.90
2019-03-09T18:13:41.515Z,10.90
2019-03-09T18:16:11.362Z,10.90
2019-03-09T18:18:40.901Z,10.90
2019-03-09T18:21:12.153Z,10.90
2019-03-09T18:23:41.593Z,10.90
2019-03-09T18:26:11.170Z,10.90
2019-03-09T18:28:40.598Z,10.90
2019-03-09T18:31:11.832Z,10.90
2019-03-09T18:33:42.742Z,10.90
2019-03-09T18:36:12.352Z,10.90
2019-03-09T18:38:49.199Z,10.80
2019-03-09T18:41:18.691Z,10.80
2019-03-09T18:43:50.366Z,10.80
2019-03-09T18:46:22.972Z,10.80
2019-03-09T18:48:52.393Z,10.70
2019-03-09T18:51:21.786Z,10.70
2019-03-09T18:53:51.245Z,10.70
2019-03-09T18:56:22.260Z,10.70
2019-03-09T18:58:51.913Z,10.60
2019-03-09T19:01:21.453Z,10.60
2019-03-09T19:03:51.219Z,10.60
2019-03-09T19:06:20.886Z,10.60
2019-03-09T19:08:50.272Z,10.60
2019-03-09T19:11:19.864Z,10.60
2019-03-09T19:13:49.339Z,10.60
2019-03-09T19:16:21.668Z,10.60
2019-03-09T19:18:51.463Z,10.60
2019-03-09T19:21:20.819Z,10.60
2019-03-09T19:23:50.182Z,10.60
2019-03-09T19:26:19.548Z,10.60
2019-03-09T19:28:48.922Z,10.60
2019-03-09T19:31:18.301Z,10.60
2019-03-09T19:33:47.688Z,10.60
2019-03-09T19:36:17.412Z,10.60
2019-03-09T19:38:46.777Z,10.60
2019-03-09T19:41:16.155Z,10.60
2019-03-09T19:43:45.553Z,10.60
2019-03-09T19:46:14.941Z,10.60
2019-03-09T19:48:44.389Z,10.60
2019-03-09T19:51:13.761Z,10.60
2019-03-09T19:53:43.135Z,10.60
2019-03-09T19:56:14.044Z,10.60
2019-03-09T19:58:43.436Z,10.70
2019-03-09T20:01:12.805Z,10.70
2019-03-09T20:03:42.173Z,10.70
2019-03-09T20:06:11.551Z,10.70
2019-03-09T20:08:41.183Z,10.70
2019-03-09T20:11:10.557Z,10.70
2019-03-09T20:13:40.462Z,10.70
2019-03-09T20:16:09.838Z,10.70
2019-03-09T20:18:39.210Z,10.70
2019-03-09T20:21:08.583Z,10.70
2019-03-09T20:23:37.948Z,10.70
2019-03-09T20:26:07.573Z,10.70
2019-03-09T20:28:36.943Z,10.70
2019-03-09T20:31:06.390Z,10.70
2019-03-09T20:33:35.765Z,10.70
2019-03-09T20:36:05.149Z,10.70
2019-03-09T20:38:34.520Z,10.60
2019-03-09T20:41:03.921Z,10.60
2019-03-09T20:43:34.149Z,10.60
2019-03-09T20:46:03.534Z,10.60
2019-03-09T20:48:32.901Z,10.50
2019-03-09T20:51:02.276Z,10.50
2019-03-09T20:53:31.643Z,10.50
2019-03-09T20:56:01.088Z,10.50
2019-03-09T20:58:30.458Z,10.50
2019-03-09T21:00:59.829Z,10.50
2019-03-09T21:03:29.195Z,10.50
2019-03-09T21:05:58.588Z,10.50
2019-03-09T21:08:27.953Z,10.60
2019-03-09T21:11:04.013Z,10.60
2019-03-09T21:13:28.418Z,10.60
2019-03-09T21:15:57.826Z,10.60
2019-03-09T21:18:27.771Z,10.70
2019-03-09T21:20:57.147Z,10.70
2019-03-09T21:23:26.509Z,10.70
2019-03-09T21:25:55.890Z,10.70
2019-03-09T21:28:25.260Z,10.80
2019-03-09T21:30:54.641Z,10.80
2019-03-09T21:33:24.017Z,10.80
2019-03-09T21:35:53.386Z,10.80
2019-03-09T21:38:22.766Z,10.80
2019-03-09T21:40:52.135Z,10.80
2019-03-09T21:43:21.520Z,10.80
2019-03-09T21:45:50.896Z,10.80
2019-03-09T21:48:20.275Z,10.80
2019-03-09T21:50:49.651Z,10.80
2019-03-09T21:53:19.048Z,10.90
2019-03-09T21:55:48.413Z,10.80
2019-03-09T21:58:17.865Z,10.80
2019-03-09T22:00:47.484Z,10.90
2019-03-09T22:03:17.473Z,10.90
2019-03-09T22:05:47.502Z,10.90
2019-03-09T22:08:17.533Z,10.90
2019-03-09T22:10:47.939Z,10.90
2019-03-09T22:13:18.596Z,10.90
2019-03-09T22:15:47.992Z,10.90
2019-03-09T22:18:18.276Z,10.90
2019-03-09T22:20:48.269Z,10.90
2019-03-09T22:23:18.328Z,10.90
2019-03-09T22:25:47.702Z,10.90
2019-03-09T22:28:17.656Z,10.90
2019-03-09T22:30:47.026Z,10.90
2019-03-09T22:33:16.395Z,10.90
2019-03-09T22:35:45.771Z,10.90
2019-03-09T22:38:15.335Z,10.80
2019-03-09T22:40:44.799Z,10.80
2019-03-09T22:43:14.160Z,10.80
2019-03-09T22:45:43.531Z,10.80
2019-03-09T22:48:12.908Z,10.80
2019-03-09T22:50:42.280Z,10.80
2019-03-09T22:53:11.656Z,10.80
2019-03-09T22:55:41.022Z,10.80
2019-03-09T22:58:10.451Z,10.80
2019-03-09T23:00:41.191Z,10.80
2019-03-09T23:03:10.572Z,10.80
2019-03-09T23:05:40.468Z,10.80
2019-03-09T23:08:09.852Z,10.80
2019-03-09T23:10:39.889Z,10.80
2019-03-09T23:13:09.260Z,10.80
2019-03-09T23:15:38.633Z,10.80
2019-03-09T23:18:08.091Z,10.80
2019-03-09T23:20:37.471Z,10.80
2019-03-09T23:23:06.844Z,10.80
2019-03-09T23:25:36.207Z,10.80
2019-03-09T23:28:05.658Z,10.80
2019-03-09T23:30:35.027Z,10.80
2019-03-09T23:33:04.395Z,10.80
2019-03-09T23:35:33.913Z,10.80
2019-03-09T23:38:03.364Z,10.80
2019-03-09T23:40:32.742Z,10.80
2019-03-09T23:43:02.109Z,10.80
2019-03-09T23:45:31.544Z,10.80
2019-03-09T23:48:01.842Z,10.80
2019-03-09T23:50:31.229Z,10.80
2019-03-09T23:53:00.764Z,10.80
2019-03-09T23:55:30.215Z,10.70
2019-03-09T23:57:59.590Z,10.80
